createdAt,value
2022-08-20T00:02:10.177Z,21.20
2022-08-20T00:04:39.523Z,21.20
2022-08-20T00:07:06.675Z,21.20
2022-08-20T00:09:36.665Z,21.20
2022-08-20T00:12:04.797Z,21.20
2022-08-20T00:14:31.565Z,21.20
2022-08-20T00:17:01.181Z,21.10
2022-08-20T00:19:28.074Z,21.10
2022-08-20T00:21:57.988Z,21.10
2022-08-20T00:24:25.893Z,21.00
2022-08-20T00:26:53.009Z,21.00
2022-08-20T00:29:20.371Z,21.00
2022-08-20T00:31:47.380Z,21.00
2022-08-20T00:34:14.385Z,21.00
2022-08-20T00:36:41.298Z,21.00
2022-08-20T00:39:08.089Z,21.00
2022-08-20T00:41:34.947Z,21.00
2022-08-20T00:44:04.727Z,20.90
2022-08-20T00:46:32.204Z,20.90
2022-08-20T00:48:59.670Z,20.90
2022-08-20T00:51:42.533Z,20.80
2022-08-20T00:54:11.363Z,20.80
2022-08-20T00:56:39.114Z,20.80
2022-08-20T00:59:11.655Z,20.70
2022-08-20T01:01:55.935Z,20.70
2022-08-20T01:04:25.141Z,20.70
2022-08-20T01:06:52.015Z,20.70
2022-08-20T01:09:49.390Z,20.60
2022-08-20T01:12:06.701Z,20.60
2022-08-20T01:14:36.143Z,20.60
2022-08-20T01:17:06.286Z,20.60
2022-08-20T01:19:44.625Z,20.60
2022-08-20T01:22:33.871Z,20.50
2022-08-20T01:25:27.191Z,20.50
2022-08-20T01:27:55.490Z,20.50
2022-08-20T01:30:23.672Z,20.50
2022-08-20T01:32:50.879Z,20.50
2022-08-20T01:35:21.699Z,20.50
2022-08-20T01:37:48.625Z,20.40
2022-08-20T01:40:24.105Z,20.40
2022-08-20T01:42:58.820Z,20.40
2022-08-20T01:45:30.429Z,20.30
2022-08-20T01:47:58.238Z,20.30
2022-08-20T01:50:27.825Z,20.30
2022-08-20T01:52:57.395Z,20.30
2022-08-20T01:55:24.641Z,20.20
2022-08-20T01:57:53.057Z,20.20
2022-08-20T02:00:22.073Z,20.20
2022-08-20T02:02:49.470Z,20.10
2022-08-20T02:05:16.547Z,20.20
2022-08-20T02:07:43.385Z,20.10
2022-08-20T02:10:11.435Z,20.10
2022-08-20T02:12:39.965Z,20.00
2022-08-20T02:15:08.747Z,20.10
2022-08-20T02:17:36.454Z,20.00
2022-08-20T02:20:08.216Z,20.10
2022-08-20T02:22:49.286Z,20.00
2022-08-20T02:25:17.879Z,20.00
2022-08-20T02:27:48.981Z,20.00
2022-08-20T02:30:19.341Z,20.00
2022-08-20T02:32:55.226Z,19.90
2022-08-20T02:35:24.326Z,19.90
2022-08-20T02:37:51.766Z,19.90
2022-08-20T02:40:27.015Z,19.90
2022-08-20T02:42:57.993Z,19.90
2022-08-20T02:45:24.899Z,19.80
2022-08-20T02:47:55.802Z,19.80
2022-08-20T02:50:24.113Z,19.80
2022-08-20T02:52:51.797Z,19.80
2022-08-20T02:55:26.842Z,19.80
2022-08-20T02:57:59.426Z,19.80
2022-08-20T03:00:27.356Z,19.70
2022-08-20T03:02:54.240Z,19.70
2022-08-20T03:05:21.196Z,19.60
2022-08-20T03:07:54.165Z,19.70
2022-08-20T03:10:29.056Z,19.60
2022-08-20T03:12:55.960Z,19.60
2022-08-20T03:15:22.818Z,19.60
2022-08-20T03:17:49.698Z,19.70
2022-08-20T03:20:16.674Z,19.70
2022-08-20T03:22:43.956Z,19.70
2022-08-20T03:25:11.062Z,19.60
2022-08-20T03:27:37.931Z,19.60
2022-08-20T03:30:06.391Z,19.60
2022-08-20T03:32:33.209Z,19.60
2022-08-20T03:35:00.100Z,19.60
2022-08-20T03:37:29.829Z,19.60
2022-08-20T03:39:56.720Z,19.60
2022-08-20T03:42:23.620Z,19.60
2022-08-20T03:44:58.538Z,19.60
2022-08-20T03:47:26.039Z,19.60
2022-08-20T03:49:52.943Z,19.60
2022-08-20T03:52:19.707Z,19.70
2022-08-20T03:54:46.661Z,19.70
2022-08-20T03:57:14.748Z,19.70
2022-08-20T03:59:42.521Z,19.70
2022-08-20T04:02:09.369Z,19.80
2022-08-20T04:04:36.303Z,19.80
2022-08-20T04:07:25.816Z,19.80
2022-08-20T04:09:53.602Z,19.90
2022-08-20T04:12:20.625Z,20.00
2022-08-20T04:14:48.356Z,20.00
2022-08-20T04:17:16.686Z,20.10
2022-08-20T04:19:44.472Z,20.20
2022-08-20T04:22:13.899Z,20.20
2022-08-20T04:24:43.790Z,20.30
2022-08-20T04:27:10.851Z,20.40
2022-08-20T04:29:43.125Z,20.50
2022-08-20T04:32:10.056Z,20.50
2022-08-20T04:34:37.073Z,20.90
2022-08-20T04:37:04.578Z,21.40
2022-08-20T04:39:31.510Z,21.50
2022-08-20T04:41:58.431Z,21.60
2022-08-20T04:44:25.223Z,21.50
2022-08-20T04:46:52.007Z,21.50
2022-08-20T04:49:20.667Z,21.50
2022-08-20T04:51:47.521Z,21.40
2022-08-20T04:54:14.613Z,21.50
2022-08-20T04:56:41.400Z,21.50
2022-08-20T04:59:08.341Z,21.60
2022-08-20T05:01:35.666Z,21.60
2022-08-20T05:04:02.663Z,21.70
2022-08-20T05:06:31.281Z,21.80
2022-08-20T05:08:59.105Z,21.90
2022-08-20T05:11:33.578Z,21.90
2022-08-20T05:14:04.098Z,22.10
2022-08-20T05:16:31.472Z,22.10
2022-08-20T05:18:58.250Z,22.10
2022-08-20T05:21:25.046Z,22.10
2022-08-20T05:23:51.875Z,22.00
2022-08-20T05:26:20.542Z,21.90
2022-08-20T05:28:53.979Z,21.80
2022-08-20T05:31:32.388Z,21.90
2022-08-20T05:34:11.898Z,21.90
2022-08-20T05:36:40.237Z,21.90
2022-08-20T05:39:07.507Z,21.90
2022-08-20T05:41:34.341Z,21.90
2022-08-20T05:44:01.546Z,21.90
2022-08-20T05:46:29.727Z,22.00
2022-08-20T05:48:59.639Z,22.00
2022-08-20T05:51:27.963Z,22.00
2022-08-20T05:53:54.779Z,22.00
2022-08-20T05:56:26.904Z,22.00
2022-08-20T05:58:54.244Z,22.00
2022-08-20T06:01:21.812Z,22.10
2022-08-20T06:04:07.205Z,22.10
2022-08-20T06:06:44.172Z,22.20
2022-08-20T06:09:13.831Z,22.20
2022-08-20T06:11:40.663Z,22.30
2022-08-20T06:14:07.602Z,22.40
2022-08-20T06:16:34.497Z,22.50
2022-08-20T06:19:04.638Z,22.50
2022-08-20T06:21:31.544Z,22.60
2022-08-20T06:23:59.488Z,22.50
2022-08-20T06:26:30.736Z,22.60
2022-08-20T06:28:58.556Z,22.70
2022-08-20T06:31:25.405Z,22.80
2022-08-20T06:33:52.243Z,22.90
2022-08-20T06:36:19.431Z,23.20
2022-08-20T06:38:46.715Z,23.70
2022-08-20T06:41:14.152Z,24.10
2022-08-20T06:43:41.139Z,24.50
2022-08-20T06:46:08.369Z,24.60
2022-08-20T06:48:35.437Z,24.60
2022-08-20T06:51:02.318Z,24.60
2022-08-20T06:53:29.270Z,24.50
2022-08-20T06:55:58.014Z,24.50
2022-08-20T06:58:36.156Z,24.40
2022-08-20T07:01:10.300Z,24.40
2022-08-20T07:03:42.286Z,24.40
2022-08-20T07:06:22.048Z,24.60
2022-08-20T07:08:48.823Z,24.80
2022-08-20T07:11:15.609Z,25.00
2022-08-20T07:13:42.416Z,25.20
2022-08-20T07:16:09.238Z,25.20
2022-08-20T07:18:36.610Z,25.40
2022-08-20T07:21:03.578Z,25.50
2022-08-20T07:23:31.757Z,25.70
2022-08-20T07:25:58.801Z,26.10
2022-08-20T07:28:28.610Z,26.40
2022-08-20T07:31:15.769Z,26.70
2022-08-20T07:33:44.608Z,27.30
2022-08-20T07:36:11.970Z,27.30
2022-08-20T07:38:38.814Z,26.70
2022-08-20T07:41:10.238Z,26.40
2022-08-20T07:43:37.122Z,26.30
2022-08-20T07:46:07.668Z,26.40
2022-08-20T07:48:36.859Z,26.60
2022-08-20T07:51:04.567Z,26.40
2022-08-20T07:53:35.775Z,26.10
2022-08-20T07:56:06.179Z,26.00
2022-08-20T07:58:33.882Z,26.10
2022-08-20T08:01:00.790Z,26.20
2022-08-20T08:03:39.537Z,26.30
2022-08-20T08:06:19.618Z,26.50
2022-08-20T08:08:58.183Z,26.50
2022-08-20T08:11:25.011Z,26.30
2022-08-20T08:13:52.053Z,26.30
2022-08-20T08:16:20.148Z,26.20
2022-08-20T08:18:50.197Z,26.10
2022-08-20T08:21:18.464Z,26.30
2022-08-20T08:23:45.501Z,26.20
2022-08-20T08:26:15.870Z,26.40
2022-08-20T08:28:44.727Z,26.40
2022-08-20T08:31:12.066Z,26.80
2022-08-20T08:33:40.887Z,26.70
2022-08-20T08:36:11.879Z,26.70
2022-08-20T08:38:40.019Z,26.80
2022-08-20T08:41:18.559Z,26.70
2022-08-20T08:43:47.381Z,26.80
2022-08-20T08:46:18.250Z,26.80
2022-08-20T08:48:46.393Z,26.90
2022-08-20T08:51:15.242Z,26.90
2022-08-20T08:53:55.253Z,27.20
2022-08-20T08:56:27.296Z,27.40
2022-08-20T08:58:55.690Z,27.60
2022-08-20T09:01:54.210Z,27.60
2022-08-20T09:04:10.942Z,27.60
2022-08-20T09:06:40.588Z,27.60
2022-08-20T09:09:12.471Z,27.50
2022-08-20T09:11:47.301Z,27.70
2022-08-20T09:14:14.208Z,27.70
2022-08-20T09:16:52.057Z,27.90
2022-08-20T09:19:19.372Z,28.10
2022-08-20T09:21:46.196Z,28.40
2022-08-20T09:24:13.150Z,28.30
2022-08-20T09:26:39.928Z,28.90
2022-08-20T09:29:06.772Z,29.40
2022-08-20T09:31:33.744Z,30.00
2022-08-20T09:34:00.557Z,30.80
2022-08-20T09:36:32.144Z,30.60
2022-08-20T09:38:59.660Z,30.30
2022-08-20T09:41:26.601Z,30.60
2022-08-20T09:43:53.570Z,30.10
2022-08-20T09:46:20.457Z,29.60
2022-08-20T09:48:54.432Z,29.30
2022-08-20T09:51:21.487Z,28.80
2022-08-20T09:53:49.168Z,28.60
2022-08-20T09:56:16.746Z,28.20
2022-08-20T09:58:46.408Z,28.10
2022-08-20T10:01:15.255Z,27.90
2022-08-20T10:03:42.736Z,27.90
2022-08-20T10:06:11.244Z,28.20
2022-08-20T10:08:38.683Z,28.30
2022-08-20T10:11:05.824Z,28.50
2022-08-20T10:13:32.597Z,28.80
2022-08-20T10:15:59.752Z,28.90
2022-08-20T10:18:26.700Z,29.00
2022-08-20T10:20:53.668Z,28.90
2022-08-20T10:23:20.610Z,28.60
2022-08-20T10:25:47.531Z,28.60
2022-08-20T10:28:14.461Z,28.30
2022-08-20T10:30:41.311Z,27.90
2022-08-20T10:33:08.102Z,27.80
2022-08-20T10:35:35.232Z,27.90
2022-08-20T10:38:02.054Z,27.70
2022-08-20T10:40:28.939Z,27.40
2022-08-20T10:42:55.801Z,27.10
2022-08-20T10:45:22.708Z,26.90
2022-08-20T10:47:49.906Z,26.90
2022-08-20T10:50:17.010Z,26.90
2022-08-20T10:52:44.005Z,26.80
2022-08-20T10:55:10.977Z,26.80
2022-08-20T10:57:38.679Z,26.90
2022-08-20T11:00:08.053Z,26.80
2022-08-20T11:02:34.791Z,26.90
2022-08-20T11:05:01.952Z,27.00
2022-08-20T11:07:50.741Z,26.90
2022-08-20T11:10:18.653Z,26.80
2022-08-20T11:12:46.529Z,26.80
2022-08-20T11:15:14.460Z,26.90
2022-08-20T11:17:42.427Z,27.00
2022-08-20T11:20:10.621Z,26.90
2022-08-20T11:22:37.821Z,26.60
2022-08-20T11:25:05.705Z,26.60
2022-08-20T11:27:36.667Z,26.50
2022-08-20T11:30:04.454Z,26.50
2022-08-20T11:32:31.293Z,26.50
2022-08-20T11:34:58.216Z,26.50
2022-08-20T11:37:25.628Z,26.60
2022-08-20T11:39:52.930Z,26.50
2022-08-20T11:42:19.807Z,26.60
2022-08-20T11:44:46.761Z,26.60
2022-08-20T11:47:21.541Z,26.40
2022-08-20T11:49:56.144Z,26.40
2022-08-20T11:52:23.155Z,26.30
2022-08-20T11:54:54.819Z,26.20
2022-08-20T11:57:23.418Z,26.10
2022-08-20T11:59:51.209Z,26.10
2022-08-20T12:02:18.457Z,26.10
2022-08-20T12:04:46.040Z,26.10
2022-08-20T12:07:14.374Z,26.10
2022-08-20T12:09:50.784Z,26.00
2022-08-20T12:12:19.565Z,26.10
2022-08-20T12:14:46.460Z,26.20
2022-08-20T12:17:22.006Z,26.20
2022-08-20T12:19:49.082Z,26.30
2022-08-20T12:22:24.908Z,26.20
2022-08-20T12:24:53.476Z,26.20
2022-08-20T12:27:23.333Z,26.10
2022-08-20T12:29:53.294Z,26.20
2022-08-20T12:32:24.771Z,26.20
2022-08-20T12:34:51.915Z,26.20
2022-08-20T12:37:20.435Z,26.00
2022-08-20T12:39:49.000Z,25.80
2022-08-20T12:42:16.554Z,25.80
2022-08-20T12:44:43.440Z,25.90
2022-08-20T12:47:10.269Z,26.00
2022-08-20T12:49:37.761Z,25.90
2022-08-20T12:52:05.091Z,25.90
2022-08-20T12:54:31.908Z,26.10
2022-08-20T12:56:58.754Z,26.20
2022-08-20T12:59:26.185Z,26.20
2022-08-20T13:01:53.522Z,26.20
2022-08-20T13:04:20.511Z,26.30
2022-08-20T13:06:47.492Z,26.30
2022-08-20T13:09:15.513Z,26.30
2022-08-20T13:11:42.406Z,26.20
2022-08-20T13:14:09.331Z,26.10
2022-08-20T13:16:36.273Z,25.90
2022-08-20T13:19:03.080Z,25.80
2022-08-20T13:21:30.483Z,25.80
2022-08-20T13:23:57.821Z,25.80
2022-08-20T13:26:24.679Z,25.90
2022-08-20T13:28:51.568Z,25.90
2022-08-20T13:31:18.401Z,25.90
2022-08-20T13:33:46.303Z,26.00
2022-08-20T13:36:13.407Z,26.00
2022-08-20T13:38:40.167Z,25.90
2022-08-20T13:41:06.939Z,25.90
2022-08-20T13:43:33.948Z,25.90
2022-08-20T13:46:00.810Z,25.80
2022-08-20T13:48:27.648Z,25.70
2022-08-20T13:50:54.946Z,25.70
2022-08-20T13:53:22.057Z,25.60
2022-08-20T13:55:49.990Z,25.60
2022-08-20T13:58:18.019Z,25.60
2022-08-20T14:00:45.466Z,25.60
2022-08-20T14:03:12.347Z,25.60
2022-08-20T14:05:40.997Z,25.60
2022-08-20T14:08:09.956Z,25.70
2022-08-20T14:10:36.908Z,25.70
2022-08-20T14:13:04.206Z,25.70
2022-08-20T14:15:31.159Z,25.70
2022-08-20T14:17:58.651Z,25.60
2022-08-20T14:20:29.385Z,25.60
2022-08-20T14:22:59.855Z,25.60
2022-08-20T14:25:27.529Z,25.50
2022-08-20T14:27:54.438Z,25.40
2022-08-20T14:30:29.168Z,25.40
2022-08-20T14:32:56.436Z,25.30
2022-08-20T14:35:23.549Z,25.30
2022-08-20T14:37:52.395Z,25.30
2022-08-20T14:40:20.149Z,25.30
2022-08-20T14:42:51.612Z,25.30
2022-08-20T14:45:20.536Z,25.20
2022-08-20T14:47:53.782Z,25.30
2022-08-20T14:50:21.076Z,25.30
2022-08-20T14:52:47.850Z,25.20
2022-08-20T14:55:15.968Z,25.30
2022-08-20T14:57:43.218Z,25.20
2022-08-20T15:00:12.051Z,25.20
2022-08-20T15:02:39.318Z,25.20
2022-08-20T15:05:07.546Z,25.10
2022-08-20T15:07:36.926Z,25.10
2022-08-20T15:10:06.464Z,25.00
2022-08-20T15:12:35.356Z,25.00
2022-08-20T15:15:12.133Z,25.00
2022-08-20T15:17:49.845Z,25.00
2022-08-20T15:20:20.153Z,24.90
2022-08-20T15:22:47.982Z,25.00
2022-08-20T15:25:16.178Z,24.90
2022-08-20T15:27:43.861Z,24.80
2022-08-20T15:30:12.922Z,24.80
2022-08-20T15:32:39.725Z,24.80
2022-08-20T15:35:08.115Z,24.80
2022-08-20T15:37:35.032Z,24.70
2022-08-20T15:40:02.950Z,24.70
2022-08-20T15:42:29.800Z,24.80
2022-08-20T15:44:56.618Z,24.70
2022-08-20T15:47:26.449Z,24.60
2022-08-20T15:50:07.977Z,24.60
2022-08-20T15:52:42.406Z,24.40
2022-08-20T15:55:11.607Z,24.40
2022-08-20T15:57:45.558Z,24.30
2022-08-20T16:00:15.659Z,24.20
2022-08-20T16:03:01.305Z,24.20
2022-08-20T16:05:28.110Z,24.10
2022-08-20T16:07:58.799Z,24.20
2022-08-20T16:10:25.596Z,24.10
2022-08-20T16:12:54.531Z,24.00
2022-08-20T16:15:28.376Z,24.00
2022-08-20T16:18:06.065Z,24.00
2022-08-20T16:20:39.933Z,24.00
2022-08-20T16:23:07.142Z,24.00
2022-08-20T16:25:45.223Z,23.80
2022-08-20T16:28:23.568Z,23.80
2022-08-20T16:30:53.774Z,23.70
2022-08-20T16:33:32.286Z,23.70
2022-08-20T16:36:01.811Z,23.60
2022-08-20T16:38:48.363Z,23.50
2022-08-20T16:41:18.105Z,23.50
2022-08-20T16:43:57.211Z,23.50
2022-08-20T16:46:38.070Z,23.40
2022-08-20T16:49:11.423Z,23.40
2022-08-20T16:51:41.299Z,23.30
2022-08-20T16:54:08.653Z,23.20
2022-08-20T16:56:40.435Z,23.20
2022-08-20T16:59:09.102Z,23.20
2022-08-20T17:01:35.936Z,23.10
2022-08-20T17:04:03.037Z,23.10
2022-08-20T17:06:37.675Z,23.00
2022-08-20T17:09:11.792Z,23.00
2022-08-20T17:11:39.225Z,23.00
2022-08-20T17:14:12.629Z,23.00
2022-08-20T17:16:42.512Z,22.90
2022-08-20T17:19:11.592Z,22.80
2022-08-20T17:21:39.345Z,22.80
2022-08-20T17:24:16.973Z,22.70
2022-08-20T17:26:48.934Z,22.70
2022-08-20T17:29:16.270Z,22.60
2022-08-20T17:31:46.253Z,22.60
2022-08-20T17:34:14.583Z,22.50
2022-08-20T17:36:53.315Z,22.50
2022-08-20T17:39:20.966Z,22.50
2022-08-20T17:41:49.008Z,22.40
2022-08-20T17:44:24.408Z,22.40
2022-08-20T17:46:52.629Z,22.30
2022-08-20T17:49:20.715Z,22.30
2022-08-20T17:51:52.781Z,22.20
2022-08-20T17:54:27.178Z,22.20
2022-08-20T17:56:56.088Z,22.10
2022-08-20T17:59:47.690Z,22.10
2022-08-20T18:02:13.407Z,22.10
2022-08-20T18:04:40.587Z,22.00
2022-08-20T18:07:15.414Z,21.90
2022-08-20T18:09:48.778Z,21.80
2022-08-20T18:12:30.833Z,21.90
2022-08-20T18:15:09.996Z,21.80
2022-08-20T18:17:43.035Z,21.70
2022-08-20T18:20:09.992Z,21.70
2022-08-20T18:22:44.632Z,21.70
2022-08-20T18:25:11.413Z,21.70
2022-08-20T18:27:42.571Z,21.70
2022-08-20T18:30:18.040Z,21.60
2022-08-20T18:32:46.029Z,21.60
2022-08-20T18:35:12.971Z,21.50
2022-08-20T18:37:39.955Z,21.50
2022-08-20T18:40:09.562Z,21.40
2022-08-20T18:42:37.377Z,21.40
2022-08-20T18:45:04.855Z,21.30
2022-08-20T18:47:34.396Z,21.30
2022-08-20T18:50:06.428Z,21.30
2022-08-20T18:52:50.525Z,21.30
2022-08-20T18:55:28.459Z,21.30
2022-08-20T18:57:57.441Z,21.20
2022-08-20T19:00:28.681Z,21.20
2022-08-20T19:03:10.433Z,21.10
2022-08-20T19:05:46.928Z,21.10
2022-08-20T19:08:16.581Z,21.10
2022-08-20T19:10:49.427Z,21.10
2022-08-20T19:13:19.484Z,21.00
2022-08-20T19:15:49.756Z,21.00
2022-08-20T19:18:45.805Z,21.00
2022-08-20T19:21:16.022Z,20.90
2022-08-20T19:23:47.523Z,20.80
2022-08-20T19:26:25.053Z,20.80
2022-08-20T19:29:04.328Z,20.80
2022-08-20T19:31:32.515Z,20.80
2022-08-20T19:34:03.846Z,20.70
2022-08-20T19:36:46.450Z,20.70
2022-08-20T19:39:17.823Z,20.60
2022-08-20T19:41:50.008Z,20.70
2022-08-20T19:44:29.950Z,20.60
2022-08-20T19:46:57.289Z,20.60
2022-08-20T19:49:29.143Z,20.60
2022-08-20T19:52:01.801Z,20.50
2022-08-20T19:54:29.533Z,20.50
2022-08-20T19:56:57.452Z,20.50
2022-08-20T19:59:24.430Z,20.40
2022-08-20T20:02:03.025Z,20.40
2022-08-20T20:04:36.878Z,20.40
2022-08-20T20:07:07.972Z,20.30
2022-08-20T20:09:35.044Z,20.30
2022-08-20T20:12:03.662Z,20.20
2022-08-20T20:14:32.170Z,20.30
2022-08-20T20:17:00.009Z,20.20
2022-08-20T20:19:28.074Z,20.20
2022-08-20T20:22:03.816Z,20.20
2022-08-20T20:24:32.659Z,20.20
2022-08-20T20:26:59.554Z,20.10
2022-08-20T20:29:28.251Z,20.00
2022-08-20T20:31:56.494Z,20.00
2022-08-20T20:34:36.808Z,20.00
2022-08-20T20:37:50.853Z,19.90
2022-08-20T20:40:28.990Z,19.90
2022-08-20T20:43:07.425Z,19.90
2022-08-20T20:45:36.807Z,19.90
2022-08-20T20:48:33.753Z,19.90
2022-08-20T20:51:01.303Z,19.90
2022-08-20T20:53:51.325Z,19.80
2022-08-20T20:56:30.188Z,19.70
2022-08-20T20:58:58.599Z,19.70
2022-08-20T21:01:27.431Z,19.70
2022-08-20T21:04:13.966Z,19.70
2022-08-20T21:06:40.876Z,19.60
2022-08-20T21:09:08.335Z,19.60
2022-08-20T21:11:35.126Z,19.60
2022-08-20T21:14:01.954Z,19.60
2022-08-20T21:16:29.683Z,19.60
2022-08-20T21:18:58.421Z,19.60
2022-08-20T21:21:25.312Z,19.60
2022-08-20T21:23:52.227Z,19.50
2022-08-20T21:26:19.083Z,19.40
2022-08-20T21:28:45.924Z,19.40
2022-08-20T21:31:12.933Z,19.40
2022-08-20T21:33:39.996Z,19.30
2022-08-20T21:36:07.000Z,19.30
2022-08-20T21:38:33.792Z,19.20
2022-08-20T21:41:00.601Z,19.20
2022-08-20T21:43:32.663Z,19.20
2022-08-20T21:46:01.442Z,19.10
2022-08-20T21:48:29.194Z,19.10
2022-08-20T21:50:56.027Z,19.10
2022-08-20T21:53:23.019Z,19.00
2022-08-20T21:55:49.838Z,19.10
2022-08-20T21:58:17.114Z,19.00
2022-08-20T22:01:10.296Z,18.90
2022-08-20T22:03:38.624Z,18.90
2022-08-20T22:06:06.728Z,18.90
2022-08-20T22:08:33.612Z,18.90
2022-08-20T22:11:00.799Z,18.90
2022-08-20T22:13:31.621Z,18.90
2022-08-20T22:15:59.344Z,18.90
2022-08-20T22:18:26.377Z,18.90
2022-08-20T22:20:53.239Z,18.90
2022-08-20T22:23:20.216Z,18.90
2022-08-20T22:25:47.028Z,18.80
2022-08-20T22:28:13.859Z,18.80
2022-08-20T22:30:42.514Z,18.90
2022-08-20T22:33:12.639Z,18.90
2022-08-20T22:35:44.951Z,18.90
2022-08-20T22:38:11.883Z,18.90
2022-08-20T22:40:38.745Z,18.80
2022-08-20T22:43:05.777Z,18.80
2022-08-20T22:45:33.208Z,18.70
2022-08-20T22:48:00.076Z,18.70
2022-08-20T22:50:27.188Z,18.70
2022-08-20T22:52:54.289Z,18.70
2022-08-20T22:55:21.194Z,18.60
2022-08-20T22:57:48.107Z,18.60
2022-08-20T23:00:16.961Z,18.60
2022-08-20T23:02:44.810Z,18.60
2022-08-20T23:05:14.845Z,18.60
2022-08-20T23:07:41.930Z,18.60
2022-08-20T23:10:08.784Z,18.60
2022-08-20T23:12:35.785Z,18.50
2022-08-20T23:15:02.612Z,18.50
2022-08-20T23:17:29.547Z,18.50
2022-08-20T23:19:56.312Z,18.60
2022-08-20T23:22:23.259Z,18.50
2022-08-20T23:24:50.258Z,18.50
2022-08-20T23:27:18.708Z,18.40
2022-08-20T23:29:46.038Z,18.50
2022-08-20T23:32:13.167Z,18.50
2022-08-20T23:34:40.084Z,18.50
2022-08-20T23:37:06.979Z,18.50
2022-08-20T23:39:33.972Z,18.50
2022-08-20T23:42:01.333Z,18.40
2022-08-20T23:44:28.216Z,18.40
2022-08-20T23:46:57.674Z,18.40
2022-08-20T23:49:24.764Z,18.30
2022-08-20T23:51:51.767Z,18.30
2022-08-20T23:54:18.583Z,18.30
2022-08-20T23:56:45.438Z,18.30
2022-08-20T23:59:12.211Z,18.20
